HVN142 VVCR-VVTS
Flight info
| Callsign | HVN142 |
|---|---|
| Flight time | N/A |
| Altitude | 26000 |
| Route | THAKA1A LKH W15 VETOM VETOM5A |
| Aircraft | B78X/H-SDE1E2E3FGHIJ2J3J4J5M1RWXY/LB1D1 |
Departure
| Time | 2026-05-06 03:36 |
|---|---|
| Airport | Cam Ranh International Airport / Cam Ranh Air Base (VVCR) |
Arrival
| Time | N/A |
|---|---|
| Airport | Tan Son Nhat International Airport (VVTS) |
| Time | Latitude | Longitude | Altitude | Speed | Heading |
|---|---|---|---|---|---|
| 2026-05-06 03:04 | 12.00670 | 109.21665 | 58 ft | 0 kts | 289° |
| 2026-05-06 03:22 | 12.00661 | 109.21694 | 55 ft | 5 kts | 288° |
| 2026-05-06 03:22 | 12.00655 | 109.21715 | 50 ft | 2 kts | 287° |
| 2026-05-06 03:23 | 12.00654 | 109.21726 | 50 ft | 2 kts | 303° |
| 2026-05-06 03:23 | 12.00647 | 109.21737 | 50 ft | 2 kts | 268° |
| 2026-05-06 03:23 | 12.00645 | 109.21748 | 50 ft | 2 kts | 268° |
| 2026-05-06 03:23 | 12.00642 | 109.21760 | 50 ft | 2 kts | 282° |
| 2026-05-06 03:24 | 12.00637 | 109.21771 | 50 ft | 2 kts | 270° |
| 2026-05-06 03:24 | 12.00634 | 109.21783 | 50 ft | 2 kts | 256° |
| 2026-05-06 03:24 | 12.00635 | 109.21797 | 50 ft | 2 kts | 218° |
| 2026-05-06 03:24 | 12.00643 | 109.21805 | 50 ft | 2 kts | 212° |
| 2026-05-06 03:25 | 12.00652 | 109.21812 | 50 ft | 2 kts | 194° |
| 2026-05-06 03:25 | 12.00662 | 109.21818 | 50 ft | 2 kts | 196° |
| 2026-05-06 03:25 | 12.00671 | 109.21822 | 50 ft | 0 kts | 182° |
| 2026-05-06 03:28 | 12.00658 | 109.21818 | 50 ft | 10 kts | 193° |
| 2026-05-06 03:28 | 12.00571 | 109.21788 | 53 ft | 14 kts | 196° |
| 2026-05-06 03:28 | 12.00488 | 109.21759 | 54 ft | 3 kts | 200° |
| 2026-05-06 03:29 | 12.00468 | 109.21752 | 55 ft | 8 kts | 198° |
| 2026-05-06 03:29 | 12.00379 | 109.21722 | 54 ft | 20 kts | 200° |
| 2026-05-06 03:29 | 12.00223 | 109.21679 | 54 ft | 23 kts | 201° |
| 2026-05-06 03:29 | 12.00131 | 109.21665 | 53 ft | 7 kts | 152° |
| 2026-05-06 03:30 | 12.00100 | 109.21705 | 52 ft | 7 kts | 117° |
| 2026-05-06 03:30 | 12.00076 | 109.21750 | 52 ft | 5 kts | 130° |
| 2026-05-06 03:30 | 12.00055 | 109.21762 | 50 ft | 2 kts | 155° |
| 2026-05-06 03:30 | 12.00014 | 109.21766 | 52 ft | 7 kts | 184° |
| 2026-05-06 03:31 | 11.99953 | 109.21749 | 55 ft | 10 kts | 199° |
| 2026-05-06 03:31 | 11.99882 | 109.21726 | 54 ft | 11 kts | 197° |
| 2026-05-06 03:31 | 11.99784 | 109.21690 | 53 ft | 25 kts | 199° |
| 2026-05-06 03:31 | 11.99634 | 109.21639 | 56 ft | 30 kts | 198° |
| 2026-05-06 03:32 | 11.99439 | 109.21572 | 55 ft | 29 kts | 199° |
| 2026-05-06 03:32 | 11.99246 | 109.21505 | 54 ft | 29 kts | 197° |
| 2026-05-06 03:32 | 11.99055 | 109.21440 | 53 ft | 29 kts | 197° |
| 2026-05-06 03:32 | 11.98867 | 109.21372 | 55 ft | 29 kts | 197° |
| 2026-05-06 03:33 | 11.98700 | 109.21315 | 55 ft | 29 kts | 199° |
| 2026-05-06 03:33 | 11.98594 | 109.21294 | 51 ft | 11 kts | 161° |
| 2026-05-06 03:33 | 11.98566 | 109.21342 | 51 ft | 7 kts | 108° |
| 2026-05-06 03:33 | 11.98550 | 109.21394 | 52 ft | 8 kts | 107° |
| 2026-05-06 03:34 | 11.98537 | 109.21447 | 55 ft | 7 kts | 94° |
| 2026-05-06 03:34 | 11.98552 | 109.21483 | 51 ft | 4 kts | 50° |
| 2026-05-06 03:34 | 11.98578 | 109.21503 | 53 ft | 5 kts | 30° |
| 2026-05-06 03:34 | 11.98584 | 109.21505 | 52 ft | 0 kts | 21° |
| 2026-05-06 03:35 | 11.98585 | 109.21506 | 52 ft | 0 kts | 21° |
| 2026-05-06 03:35 | 11.98793 | 109.21577 | 55 ft | 77 kts | 18° |
| 2026-05-06 03:36 | 11.99584 | 109.21842 | 69 ft | 158 kts | 18° |
| 2026-05-06 03:36 | 12.00660 | 109.22228 | 1030 ft | 154 kts | 18° |
| 2026-05-06 03:36 | 12.01317 | 109.22460 | 1871 ft | 151 kts | 19° |
| 2026-05-06 03:36 | 12.02454 | 109.22849 | 2312 ft | 186 kts | 19° |
| 2026-05-06 03:37 | 12.03731 | 109.23290 | 3011 ft | 204 kts | 19° |
| 2026-05-06 03:37 | 12.05137 | 109.23778 | 3733 ft | 224 kts | 20° |
| 2026-05-06 03:37 | 12.06681 | 109.24315 | 4418 ft | 245 kts | 20° |
| 2026-05-06 03:37 | 12.08361 | 109.24884 | 5263 ft | 267 kts | 16° |
| 2026-05-06 03:38 | 12.10216 | 109.24837 | 6445 ft | 273 kts | 350° |
| 2026-05-06 03:38 | 12.12085 | 109.24422 | 6974 ft | 288 kts | 348° |
| 2026-05-06 03:38 | 12.14013 | 109.23910 | 6984 ft | 286 kts | 347° |
| 2026-05-06 03:38 | 12.15964 | 109.23398 | 6956 ft | 284 kts | 348° |
| 2026-05-06 03:39 | 12.17867 | 109.22932 | 6958 ft | 284 kts | 348° |
| 2026-05-06 03:39 | 12.19792 | 109.22444 | 6963 ft | 284 kts | 343° |
| 2026-05-06 03:39 | 12.21371 | 109.21450 | 6987 ft | 287 kts | 317° |
| 2026-05-06 03:39 | 12.22514 | 109.19722 | 7267 ft | 293 kts | 296° |
| 2026-05-06 03:40 | 12.23469 | 109.17852 | 8232 ft | 293 kts | 300° |
| 2026-05-06 03:40 | 12.24457 | 109.16024 | 9515 ft | 299 kts | 299° |
| 2026-05-06 03:40 | 12.25445 | 109.14105 | 10570 ft | 311 kts | 298° |
| 2026-05-06 03:40 | 12.26468 | 109.12077 | 11292 ft | 331 kts | 298° |
| 2026-05-06 03:41 | 12.27503 | 109.09891 | 11943 ft | 354 kts | 289° |
| 2026-05-06 03:41 | 12.27795 | 109.07360 | 12610 ft | 371 kts | 263° |
| 2026-05-06 03:41 | 12.27057 | 109.04814 | 13627 ft | 377 kts | 241° |
| 2026-05-06 03:41 | 12.25761 | 109.02801 | 14435 ft | 382 kts | 231° |
| 2026-05-06 03:42 | 12.24251 | 109.00955 | 15240 ft | 387 kts | 228° |
| 2026-05-06 03:42 | 12.22473 | 108.98870 | 16165 ft | 393 kts | 229° |
| 2026-05-06 03:42 | 12.20781 | 108.96635 | 17093 ft | 399 kts | 233° |
| 2026-05-06 03:42 | 12.19159 | 108.94294 | 17969 ft | 405 kts | 234° |
| 2026-05-06 03:43 | 12.17645 | 108.92208 | 18692 ft | 410 kts | 232° |
| 2026-05-06 03:43 | 12.15856 | 108.89872 | 19472 ft | 415 kts | 231° |
| 2026-05-06 03:43 | 12.14116 | 108.87572 | 20209 ft | 419 kts | 232° |
| 2026-05-06 03:43 | 12.12332 | 108.85130 | 20987 ft | 424 kts | 233° |
| 2026-05-06 03:44 | 12.10554 | 108.82705 | 21731 ft | 428 kts | 232° |
| 2026-05-06 03:44 | 12.08753 | 108.80300 | 22447 ft | 432 kts | 231° |
| 2026-05-06 03:44 | 12.06897 | 108.77820 | 23174 ft | 436 kts | 232° |
| 2026-05-06 03:44 | 12.05096 | 108.75389 | 23810 ft | 440 kts | 232° |
| 2026-05-06 03:45 | 12.03221 | 108.72852 | 24581 ft | 438 kts | 232° |
| 2026-05-06 03:45 | 12.01412 | 108.70421 | 25367 ft | 436 kts | 232° |
| 2026-05-06 03:45 | 11.99541 | 108.67913 | 25838 ft | 441 kts | 232° |
| 2026-05-06 03:45 | 11.97843 | 108.65631 | 25985 ft | 436 kts | 232° |
| 2026-05-06 03:46 | 11.96026 | 108.63182 | 25981 ft | 434 kts | 232° |
| 2026-05-06 03:46 | 11.94258 | 108.60806 | 25981 ft | 434 kts | 232° |
| 2026-05-06 03:46 | 11.92392 | 108.58302 | 25983 ft | 434 kts | 232° |
| 2026-05-06 03:46 | 11.90576 | 108.55863 | 25984 ft | 433 kts | 232° |
| 2026-05-06 03:47 | 11.88738 | 108.53393 | 25978 ft | 434 kts | 232° |
| 2026-05-06 03:47 | 11.86910 | 108.50940 | 25979 ft | 433 kts | 232° |
| 2026-05-06 03:47 | 11.85088 | 108.48495 | 25982 ft | 433 kts | 232° |
| 2026-05-06 03:47 | 11.83242 | 108.46017 | 25983 ft | 433 kts | 232° |
| 2026-05-06 03:48 | 11.81419 | 108.43573 | 25975 ft | 433 kts | 231° |
| 2026-05-06 03:48 | 11.79617 | 108.41156 | 25977 ft | 433 kts | 232° |
| 2026-05-06 03:48 | 11.77807 | 108.38727 | 25973 ft | 433 kts | 232° |
| 2026-05-06 03:48 | 11.75953 | 108.36242 | 25973 ft | 433 kts | 232° |
| 2026-05-06 03:49 | 11.74213 | 108.33713 | 25979 ft | 434 kts | 235° |
| 2026-05-06 03:49 | 11.72437 | 108.31156 | 25980 ft | 435 kts | 232° |
| 2026-05-06 03:49 | 11.70665 | 108.28720 | 25976 ft | 435 kts | 233° |
| 2026-05-06 03:49 | 11.68913 | 108.26209 | 25970 ft | 435 kts | 234° |
| 2026-05-06 03:50 | 11.67165 | 108.23627 | 25974 ft | 435 kts | 234° |
| 2026-05-06 03:50 | 11.65420 | 108.21105 | 25971 ft | 435 kts | 233° |
| 2026-05-06 03:50 | 11.63674 | 108.18630 | 25968 ft | 435 kts | 233° |
| 2026-05-06 03:50 | 11.61916 | 108.16112 | 25966 ft | 435 kts | 234° |
| 2026-05-06 03:51 | 11.60181 | 108.13599 | 25967 ft | 435 kts | 234° |
| 2026-05-06 03:51 | 11.58427 | 108.11070 | 25962 ft | 435 kts | 233° |
| 2026-05-06 03:51 | 11.56676 | 108.08566 | 25959 ft | 435 kts | 233° |
| 2026-05-06 03:51 | 11.54920 | 108.06049 | 25958 ft | 435 kts | 233° |
| 2026-05-06 03:52 | 11.53194 | 108.03565 | 25960 ft | 435 kts | 233° |
| 2026-05-06 03:52 | 11.51432 | 108.01035 | 25952 ft | 435 kts | 233° |
| 2026-05-06 03:52 | 11.49676 | 107.98517 | 25803 ft | 432 kts | 233° |
| 2026-05-06 03:52 | 11.48112 | 107.96276 | 25363 ft | 432 kts | 233° |
| 2026-05-06 03:53 | 11.46571 | 107.94064 | 24755 ft | 435 kts | 233° |
| 2026-05-06 03:53 | 11.44819 | 107.91551 | 24248 ft | 433 kts | 233° |
| 2026-05-06 03:53 | 11.43049 | 107.89014 | 23832 ft | 429 kts | 233° |
| 2026-05-06 03:53 | 11.41329 | 107.86548 | 23374 ft | 426 kts | 234° |
| 2026-05-06 03:54 | 11.39825 | 107.84393 | 22909 ft | 423 kts | 234° |
| 2026-05-06 03:54 | 11.38139 | 107.81977 | 22402 ft | 420 kts | 234° |
| 2026-05-06 03:54 | 11.36465 | 107.79580 | 21906 ft | 417 kts | 234° |
| 2026-05-06 03:54 | 11.34766 | 107.77146 | 21389 ft | 414 kts | 234° |
| 2026-05-06 03:55 | 11.33082 | 107.74736 | 20853 ft | 411 kts | 234° |
| 2026-05-06 03:55 | 11.31464 | 107.72421 | 20396 ft | 408 kts | 234° |
| 2026-05-06 03:55 | 11.29838 | 107.70095 | 19891 ft | 405 kts | 234° |
| 2026-05-06 03:55 | 11.28206 | 107.67759 | 19390 ft | 402 kts | 234° |
| 2026-05-06 03:56 | 11.26590 | 107.65448 | 18909 ft | 400 kts | 234° |
| 2026-05-06 03:56 | 11.25010 | 107.63189 | 18479 ft | 397 kts | 234° |
| 2026-05-06 03:56 | 11.23894 | 107.61595 | 18152 ft | 395 kts | 233° |
| 2026-05-06 03:56 | 11.22081 | 107.59515 | 17610 ft | 390 kts | 223° |
| 2026-05-06 03:57 | 11.20138 | 107.57600 | 17086 ft | 388 kts | 223° |